• Join FlightAware (Why Join?)
  • Login
  • US Flag 
04:18PM EST


 

Airport Tracker/Info


-or-


 

Live Flight TrackerFlight Track Log ✈ CHQ5017 ✈ 04-May-2013 ✈ KORD - KAZO

Flight Track Log - Related Links

Times and Time Zones

All times are in EDT time to prevent confusion due to time zone crossing. See the CHQ5017 flight status page for this flight to view local times or setup timezone preferences in your user account.

Time Position Orientation Groundspeed Altitude Reporting Facility
EDT Latitude Longitude Course Direction KTS MPH feet Rate Location/Type
03:41PM 42.0000 -87.8667 84° East 154 177 2,300  Level Chicago TRACON
03:41PM 42.0000 -87.8167 90° East 202 232 4,000 2,160 Climbing Chicago TRACON
03:43PM 42.0167 -87.6582 90° East  Level FlightAware Approximate
03:44PM 42.0234 -87.5766 37° Northeast  Level FlightAware Approximate
03:44PM 42.0250 -87.6150 80° East 260 299 9,100  Level Chicago Center
03:45PM 42.0391 -87.4976 84° East  Level FlightAware Approximate
03:45PM 42.0417 -87.5142 77° East 275 316 10,800  Level Chicago Center
03:46PM 42.0463 -87.4119 84° East  Level FlightAware Approximate
03:46PM 42.0572 -87.4089 79° East 287 330 11,000  Level Chicago Center
03:47PM 42.0694 -87.2833 82° East 336 387 11,000  Level Chicago Center
03:48PM 42.0844 -87.1308 82° East 344 396 11,000  Level Chicago Center
03:49PM 42.0981 -87.0044 82° East 343 395 11,100  Climbing Chicago Center
03:50PM 42.1089 -86.8758 83° East 347 399 11,100  Level Chicago Center
03:51PM 42.1225 -86.7483 82° East 348 400 11,100  Level Chicago Center
03:52PM 42.1358 -86.6156 82° East 350 403 11,100  Level Chicago Center
03:53PM 42.1478 -86.4878 83° East 347 399 11,100  Level Chicago Center
03:54PM 42.1600 -86.3603 83° East 344 396 11,100 -120 Level Chicago Center
03:55PM 42.1719 -86.2400 82° East 324 373 10,900 -1,140 Descending Chicago Center
03:56PM 42.1828 -86.1197 83° East 274 315 8,800 -1,860 Descending Chicago Center
03:57PM 42.1925 -86.0203 82° East 270 311 7,100 -1,560 Descending Chicago Center
03:58PM 42.2014 -85.9278 83° East 257 296 5,600 -1,620 Descending Chicago Center
03:59PM 42.2111 -85.8406 81° East 243 280 3,800 -1,500 Descending Chicago Center
04:00PM 42.2292 -85.7567 74° East 235 270 2,600 -1,200 Descending Chicago Center